createdAt,value
2018-10-16T00:01:18.021Z,99974.00
2018-10-16T00:03:45.805Z,99967.08
2018-10-16T00:06:13.518Z,99961.39
2018-10-16T00:08:41.246Z,99959.73
2018-10-16T00:11:08.966Z,99962.23
2018-10-16T00:13:36.761Z,99962.09
2018-10-16T00:16:04.655Z,99957.90
2018-10-16T00:18:32.441Z,99959.36
2018-10-16T00:21:00.131Z,99947.99
2018-10-16T00:23:27.843Z,99940.03
2018-10-16T00:25:55.584Z,99949.80
2018-10-16T00:28:23.275Z,99951.08
2018-10-16T00:30:51.041Z,99951.56
2018-10-16T00:33:18.750Z,99951.56
2018-10-16T00:35:46.451Z,99948.48
2018-10-16T00:38:14.229Z,99950.98
2018-10-16T00:40:41.981Z,99939.50
2018-10-16T00:43:09.641Z,99939.68
2018-10-16T00:45:37.462Z,99943.36
2018-10-16T00:48:05.473Z,99938.01
2018-10-16T00:50:33.212Z,99935.61
2018-10-16T00:53:00.909Z,99938.18
2018-10-16T00:55:28.665Z,99940.61
2018-10-16T00:57:56.475Z,99934.70
2018-10-16T01:00:24.203Z,99940.22
2018-10-16T01:02:51.892Z,99942.38
2018-10-16T01:05:19.562Z,99935.59
2018-10-16T01:07:47.189Z,99950.65
2018-10-16T01:10:14.840Z,99949.70
2018-10-16T01:12:42.621Z,99945.70
2018-10-16T01:15:11.048Z,99943.28
2018-10-16T01:17:39.256Z,99939.55
2018-10-16T01:20:10.068Z,99938.53
2018-10-16T01:22:37.967Z,99938.62
2018-10-16T01:25:06.854Z,99938.31
2018-10-16T01:27:34.569Z,99927.76
2018-10-16T01:30:02.256Z,99933.34
2018-10-16T01:32:29.946Z,99933.95
2018-10-16T01:34:57.604Z,99927.41
2018-10-16T01:37:25.300Z,99922.87
2018-10-16T01:39:52.931Z,99926.88
2018-10-16T01:42:20.670Z,99923.05
2018-10-16T01:44:48.414Z,99924.94
2018-10-16T01:47:16.155Z,99919.66
2018-10-16T01:49:43.862Z,99920.67
2018-10-16T01:52:11.563Z,99916.44
2018-10-16T01:54:39.286Z,99913.02
2018-10-16T01:57:06.953Z,99923.83
2018-10-16T01:59:34.674Z,99927.82
2018-10-16T02:02:02.972Z,99928.70
2018-10-16T02:04:30.642Z,99922.84
2018-10-16T02:06:58.354Z,99922.00
2018-10-16T02:09:34.539Z,99925.44
2018-10-16T02:12:02.240Z,99921.62
2018-10-16T02:14:30.097Z,99927.75
2018-10-16T02:16:57.791Z,99928.33
2018-10-16T02:19:25.623Z,99926.80
2018-10-16T02:21:53.370Z,99915.74
2018-10-16T02:24:21.051Z,99919.75
2018-10-16T02:26:48.739Z,99918.88
2018-10-16T02:29:16.572Z,99924.06
2018-10-16T02:31:44.297Z,99927.01
2018-10-16T02:34:12.026Z,99922.97
2018-10-16T02:36:39.711Z,99927.20
2018-10-16T02:39:08.592Z,99932.63
2018-10-16T02:41:36.394Z,99928.84
2018-10-16T02:44:04.913Z,99929.44
2018-10-16T02:46:32.555Z,99937.27
2018-10-16T02:49:00.239Z,99932.58
2018-10-16T02:51:27.901Z,99937.66
2018-10-16T02:53:55.655Z,99938.94
2018-10-16T02:56:23.315Z,99945.50
2018-10-16T02:58:57.819Z,99940.31
2018-10-16T03:01:25.847Z,99939.87
2018-10-16T03:03:53.588Z,99946.24
2018-10-16T03:06:21.307Z,99943.50
2018-10-16T03:08:49.049Z,99944.59
2018-10-16T03:11:16.974Z,99946.26
2018-10-16T03:13:44.709Z,99944.97
2018-10-16T03:16:12.350Z,99943.79
2018-10-16T03:18:40.014Z,99945.22
2018-10-16T03:21:07.707Z,99946.49
2018-10-16T03:23:35.350Z,99949.97
2018-10-16T03:26:03.118Z,99956.27
2018-10-16T03:28:30.938Z,99960.30
2018-10-16T03:30:58.632Z,99959.20
2018-10-16T03:33:26.378Z,99962.89
2018-10-16T03:35:54.224Z,99957.50
2018-10-16T03:38:21.949Z,99957.70
2018-10-16T03:40:49.621Z,99954.16
2018-10-16T03:43:17.353Z,99957.84
2018-10-16T03:45:45.095Z,99957.88
2018-10-16T03:48:12.801Z,99964.56
2018-10-16T03:50:40.532Z,99966.12
2018-10-16T03:53:08.288Z,99966.75
2018-10-16T03:55:36.009Z,99959.66
2018-10-16T03:58:04.286Z,99962.16
2018-10-16T04:00:31.957Z,99958.34
2018-10-16T04:02:59.621Z,99954.47
2018-10-16T04:05:27.291Z,99956.86
2018-10-16T04:07:54.981Z,99950.70
2018-10-16T04:10:22.715Z,99952.52
2018-10-16T04:12:50.405Z,99945.17
2018-10-16T04:15:18.126Z,99944.48
2018-10-16T04:17:45.777Z,99947.52
2018-10-16T04:20:13.423Z,99946.09
2018-10-16T04:22:41.051Z,99946.30
2018-10-16T04:25:09.051Z,99951.14
2018-10-16T04:27:36.743Z,99953.29
2018-10-16T04:30:05.429Z,99960.77
2018-10-16T04:32:33.137Z,99953.67
2018-10-16T04:35:00.861Z,99958.44
2018-10-16T04:37:28.588Z,99952.21
2018-10-16T04:39:56.215Z,99961.95
2018-10-16T04:42:23.871Z,99967.20
2018-10-16T04:44:51.551Z,99964.07
2018-10-16T04:47:19.309Z,99971.24
2018-10-16T04:49:47.002Z,99973.41
2018-10-16T04:52:14.665Z,99971.06
2018-10-16T04:54:42.263Z,99971.03
2018-10-16T04:57:09.886Z,99972.56
2018-10-16T04:59:37.570Z,99966.78
2018-10-16T05:02:05.583Z,99978.13
2018-10-16T05:04:33.244Z,99985.95
2018-10-16T05:07:01.103Z,99989.05
2018-10-16T05:09:28.742Z,99986.93
2018-10-16T05:11:56.480Z,99990.66
2018-10-16T05:14:24.137Z,99989.53
2018-10-16T05:16:51.892Z,99997.04
2018-10-16T05:19:19.563Z,99997.83
2018-10-16T05:21:47.444Z,99998.31
2018-10-16T05:24:15.185Z,100003.23
2018-10-16T05:26:42.952Z,99996.91
2018-10-16T05:29:10.984Z,100002.81
2018-10-16T05:31:38.853Z,99999.64
2018-10-16T05:34:07.442Z,99997.30
2018-10-16T05:36:35.053Z,99999.69
2018-10-16T05:39:03.792Z,99999.11
2018-10-16T05:41:31.502Z,99998.36
2018-10-16T05:43:59.156Z,100006.77
2018-10-16T05:46:26.910Z,100008.67
2018-10-16T05:48:54.560Z,100008.05
2018-10-16T05:51:22.304Z,100011.58
2018-10-16T05:53:50.005Z,100009.28
2018-10-16T05:56:17.673Z,100018.53
2018-10-16T05:58:45.325Z,100022.05
2018-10-16T06:01:13.163Z,100022.57
2018-10-16T06:03:40.821Z,100020.15
2018-10-16T06:06:08.481Z,100018.10
2018-10-16T06:08:36.179Z,100016.68
2018-10-16T06:11:04.145Z,100010.34
2018-10-16T06:13:31.909Z,100012.61
2018-10-16T06:15:59.645Z,100011.62
2018-10-16T06:18:27.335Z,100013.72
2018-10-16T06:20:54.983Z,100015.87
2018-10-16T06:23:22.628Z,100016.64
2018-10-16T06:25:50.318Z,100017.11
2018-10-16T06:28:20.489Z,100018.75
2018-10-16T06:30:48.175Z,100014.44
2018-10-16T06:33:18.141Z,100024.88
2018-10-16T06:35:45.736Z,100033.17
2018-10-16T06:38:13.378Z,100026.92
2018-10-16T06:40:41.121Z,100032.82
2018-10-16T06:43:08.768Z,100033.54
2018-10-16T06:45:36.487Z,100037.41
2018-10-16T06:48:04.818Z,100034.53
2018-10-16T06:50:32.543Z,100036.69
2018-10-16T06:53:07.144Z,100041.92
2018-10-16T06:55:34.865Z,100043.53
2018-10-16T06:58:03.046Z,100047.53
2018-10-16T07:00:30.768Z,100051.30
2018-10-16T07:02:58.435Z,100057.81
2018-10-16T07:05:26.151Z,100051.61
2018-10-16T07:07:53.870Z,100056.77
2018-10-16T07:10:21.656Z,100057.61
2018-10-16T07:12:49.401Z,100057.97
2018-10-16T07:15:17.052Z,100055.38
2018-10-16T07:17:44.820Z,100053.77
2018-10-16T07:20:12.922Z,100052.66
2018-10-16T07:22:40.552Z,100057.81
2018-10-16T07:25:08.765Z,100057.55
2018-10-16T07:27:36.453Z,100064.08
2018-10-16T07:30:06.477Z,100061.23
2018-10-16T07:32:34.100Z,100061.88
2018-10-16T07:35:01.842Z,100063.69
2018-10-16T07:37:29.533Z,100061.17
2018-10-16T07:39:57.231Z,100066.83
2018-10-16T07:42:24.918Z,100069.02
2018-10-16T07:44:52.579Z,100062.27
2018-10-16T07:47:20.205Z,100063.49
2018-10-16T07:49:47.934Z,100069.27
2018-10-16T07:52:15.631Z,100070.03
2018-10-16T07:54:43.294Z,100069.07
2018-10-16T07:57:11.126Z,100064.95
2018-10-16T07:59:38.677Z,100058.44
2018-10-16T08:02:06.361Z,100063.27
2018-10-16T08:04:34.023Z,100064.72
2018-10-16T08:07:01.639Z,100070.97
2018-10-16T08:09:29.304Z,100072.11
2018-10-16T08:11:56.962Z,100073.15
2018-10-16T08:14:24.646Z,100071.55
2018-10-16T08:16:52.324Z,100068.89
2018-10-16T08:19:19.961Z,100070.61
2018-10-16T08:21:47.740Z,100071.27
2018-10-16T08:24:15.380Z,100069.30
2018-10-16T08:26:43.014Z,100065.35
2018-10-16T08:29:10.692Z,100066.50
2018-10-16T08:31:38.466Z,100063.67
2018-10-16T08:34:06.450Z,100063.50
2018-10-16T08:36:34.565Z,100060.81
2018-10-16T08:39:26.069Z,100062.26
2018-10-16T08:44:43.510Z,100057.27
2018-10-16T08:47:28.926Z,100055.66
2018-10-16T08:50:14.142Z,100052.80
2018-10-16T08:55:16.028Z,100053.21
2018-10-16T08:57:43.694Z,100057.93
2018-10-16T09:00:11.381Z,100061.97
2018-10-16T09:02:39.058Z,100064.80
2018-10-16T09:05:06.878Z,100066.16
2018-10-16T09:07:34.510Z,100066.72
2018-10-16T09:10:03.511Z,100075.21
2018-10-16T09:12:31.242Z,100070.71
2018-10-16T09:14:58.946Z,100065.27
2018-10-16T09:17:26.624Z,100067.20
2018-10-16T09:19:54.228Z,100066.02
2018-10-16T09:22:21.878Z,100067.87
2018-10-16T09:24:49.578Z,100070.55
2018-10-16T09:27:17.250Z,100075.64
2018-10-16T09:29:45.365Z,100075.97
2018-10-16T09:32:13.048Z,100069.70
2018-10-16T09:34:40.691Z,100072.39
2018-10-16T09:37:08.472Z,100069.94
2018-10-16T09:39:36.203Z,100076.99
2018-10-16T09:42:04.285Z,100082.69
2018-10-16T09:44:31.919Z,100079.19
2018-10-16T09:46:59.572Z,100079.31
2018-10-16T09:49:27.224Z,100078.11
2018-10-16T09:51:54.916Z,100078.58
2018-10-16T09:54:22.548Z,100073.55
2018-10-16T09:56:50.309Z,100077.25
2018-10-16T09:59:18.005Z,100076.70
2018-10-16T10:01:47.425Z,100073.93
2018-10-16T10:04:15.220Z,100067.47
2018-10-16T10:06:42.822Z,99949.50
2018-10-16T10:09:12.067Z,100069.51
2018-10-16T10:11:39.960Z,100068.03
2018-10-16T10:14:08.016Z,100061.48
2018-10-16T10:16:36.171Z,100060.65
2018-10-16T10:19:04.138Z,100059.18
2018-10-16T10:21:31.840Z,100062.45
2018-10-16T10:23:59.540Z,100053.20
2018-10-16T10:26:27.282Z,100055.84
2018-10-16T10:28:55.187Z,100055.61
2018-10-16T10:31:22.858Z,100051.59
2018-10-16T10:33:50.787Z,100043.22
2018-10-16T10:36:18.474Z,100047.27
2018-10-16T10:38:46.353Z,100041.95
2018-10-16T10:41:13.993Z,100039.28
2018-10-16T10:43:41.747Z,100044.15
2018-10-16T10:46:09.408Z,100038.53
2018-10-16T10:48:37.419Z,100035.39
2018-10-16T10:51:05.708Z,100040.55
2018-10-16T10:53:33.267Z,100038.50
2018-10-16T10:56:00.955Z,100037.35
2018-10-16T10:58:28.682Z,100039.05
2018-10-16T11:00:56.334Z,100036.17
2018-10-16T11:03:24.219Z,100034.20
2018-10-16T11:05:51.708Z,100036.94
2018-10-16T11:08:19.371Z,100030.94
2018-10-16T11:10:47.018Z,100039.08
2018-10-16T11:13:14.634Z,100037.85
2018-10-16T11:15:42.291Z,100035.56
2018-10-16T11:18:09.919Z,100042.28
2018-10-16T11:20:37.506Z,100047.25
2018-10-16T11:23:05.323Z,100049.09
2018-10-16T11:25:32.982Z,100050.17
2018-10-16T11:28:00.671Z,100058.89
2018-10-16T11:30:28.325Z,100051.02
2018-10-16T11:32:55.954Z,100046.48
2018-10-16T11:35:23.609Z,100060.64
2018-10-16T11:37:51.316Z,100054.20
2018-10-16T11:40:18.990Z,100050.04
2018-10-16T11:42:46.650Z,100046.64
2018-10-16T11:45:14.480Z,100048.86
2018-10-16T11:47:42.165Z,100043.09
2018-10-16T11:50:10.842Z,100049.20
2018-10-16T11:52:38.467Z,100048.94
2018-10-16T11:55:06.565Z,100054.40
2018-10-16T11:57:34.167Z,100055.03
2018-10-16T12:00:01.852Z,100056.28
2018-10-16T12:02:29.522Z,100053.09
2018-10-16T12:04:57.220Z,100059.84
2018-10-16T12:07:24.888Z,100051.13
2018-10-16T12:09:52.579Z,100056.48
2018-10-16T12:12:20.251Z,100058.83
2018-10-16T12:14:47.871Z,100055.70
2018-10-16T12:17:19.362Z,100056.59
2018-10-16T12:19:50.327Z,100055.77
2018-10-16T12:22:17.960Z,100055.77
2018-10-16T12:24:45.628Z,100051.68
2018-10-16T12:27:13.515Z,100055.55
2018-10-16T12:29:41.112Z,100053.95
2018-10-16T12:32:08.812Z,100055.67
2018-10-16T12:34:36.504Z,100049.12
2018-10-16T12:37:04.713Z,100054.50
2018-10-16T12:39:32.393Z,100053.41
2018-10-16T12:42:00.061Z,100057.03
2018-10-16T12:44:27.661Z,100062.69
2018-10-16T12:46:55.411Z,100060.73
2018-10-16T12:49:23.040Z,100056.31
2018-10-16T12:51:50.866Z,100056.67
2018-10-16T12:54:18.461Z,100051.78
2018-10-16T12:56:46.138Z,100053.95
2018-10-16T12:59:13.876Z,100046.62
2018-10-16T13:01:41.559Z,100050.97
2018-10-16T13:04:09.357Z,100052.42
2018-10-16T13:06:37.005Z,100054.80
2018-10-16T13:09:07.371Z,100051.58
2018-10-16T13:11:34.967Z,100056.00
2018-10-16T13:14:02.650Z,100058.55
2018-10-16T13:16:30.303Z,100057.27
2018-10-16T13:18:58.172Z,100059.92
2018-10-16T13:21:26.043Z,100056.78
2018-10-16T13:23:53.810Z,100055.59
2018-10-16T13:26:21.504Z,100058.73
2018-10-16T13:28:49.217Z,100054.84
2018-10-16T13:31:16.934Z,100063.86
2018-10-16T13:33:44.620Z,100060.62
2018-10-16T13:36:12.616Z,100060.95
2018-10-16T13:38:40.403Z,100049.96
2018-10-16T13:41:08.055Z,100065.15
2018-10-16T13:43:35.630Z,100061.88
2018-10-16T13:46:03.737Z,100066.12
2018-10-16T13:48:31.466Z,100068.53
2018-10-16T13:50:59.096Z,100067.70
2018-10-16T13:53:26.706Z,100064.83
2018-10-16T13:55:54.378Z,100065.25
2018-10-16T13:58:22.046Z,100067.28
2018-10-16T14:00:49.685Z,100061.19
2018-10-16T14:03:17.302Z,100066.83
2018-10-16T14:05:44.926Z,100061.31
2018-10-16T14:08:12.676Z,100060.06
2018-10-16T14:10:40.333Z,100058.61
2018-10-16T14:13:08.018Z,100064.66
2018-10-16T14:15:35.640Z,100064.58
2018-10-16T14:18:03.389Z,100071.47
2018-10-16T14:20:31.028Z,100068.23
2018-10-16T14:22:58.653Z,100064.28
2018-10-16T14:25:26.311Z,100056.34
2018-10-16T14:27:54.010Z,100065.05
2018-10-16T14:30:21.687Z,100063.45
2018-10-16T14:32:49.291Z,100065.16
2018-10-16T14:35:17.095Z,100063.13
2018-10-16T14:37:44.755Z,100058.29
2018-10-16T14:40:13.825Z,100066.80
2018-10-16T14:42:41.776Z,100064.50
2018-10-16T14:45:10.425Z,100062.94
2018-10-16T14:47:38.095Z,100058.30
2018-10-16T14:50:06.499Z,100066.42
2018-10-16T14:52:34.331Z,100065.62
2018-10-16T14:55:02.276Z,100071.70
2018-10-16T14:57:29.975Z,100066.25
2018-10-16T14:59:57.663Z,100069.16
2018-10-16T15:02:25.369Z,100061.63
2018-10-16T15:04:53.067Z,100068.19
2018-10-16T15:07:20.691Z,100069.38
2018-10-16T15:09:48.492Z,100070.80
2018-10-16T15:12:16.147Z,100071.25
2018-10-16T15:14:43.841Z,100069.47
2018-10-16T15:17:11.511Z,100067.90
2018-10-16T15:19:39.179Z,100083.42
2018-10-16T15:22:06.942Z,100076.64
2018-10-16T15:24:34.565Z,100072.70
2018-10-16T15:27:02.182Z,100070.77
2018-10-16T15:29:29.838Z,100069.91
2018-10-16T15:31:57.529Z,100068.81
2018-10-16T15:34:25.290Z,100075.92
2018-10-16T15:36:52.978Z,100070.19
2018-10-16T15:39:20.690Z,100077.27
2018-10-16T15:41:48.388Z,100080.75
2018-10-16T15:44:16.090Z,100084.27
2018-10-16T15:46:43.748Z,100083.63
2018-10-16T15:49:11.515Z,100091.36
2018-10-16T15:51:39.362Z,100095.20
2018-10-16T15:54:07.182Z,100093.11
2018-10-16T15:56:34.875Z,100099.30
2018-10-16T15:59:02.550Z,100101.42
2018-10-16T16:01:30.262Z,100103.05
2018-10-16T16:03:58.118Z,100101.13
2018-10-16T16:06:25.779Z,100106.14
2018-10-16T16:08:53.528Z,100109.97
2018-10-16T16:11:21.188Z,100110.24
2018-10-16T16:13:48.900Z,100117.77
2018-10-16T16:16:16.774Z,100116.83
2018-10-16T16:18:44.500Z,100117.91
2018-10-16T16:21:12.250Z,100117.92
2018-10-16T16:23:39.940Z,100125.13
2018-10-16T16:26:07.794Z,100126.44
2018-10-16T16:28:35.694Z,100125.27
2018-10-16T16:31:03.520Z,100127.92
2018-10-16T16:33:31.284Z,100125.61
2018-10-16T16:35:59.172Z,100133.75
2018-10-16T16:38:26.842Z,100128.08
2018-10-16T16:40:54.645Z,100137.78
2018-10-16T16:43:22.435Z,100131.79
2018-10-16T16:45:50.201Z,100143.09
2018-10-16T16:48:17.915Z,100149.05
2018-10-16T16:50:45.719Z,100147.84
2018-10-16T16:53:13.573Z,100154.28
2018-10-16T16:55:41.474Z,100145.32
2018-10-16T16:58:09.530Z,100138.43
2018-10-16T17:00:37.224Z,100156.52
2018-10-16T17:03:05.120Z,100151.51
2018-10-16T17:05:32.911Z,100161.86
2018-10-16T17:08:01.148Z,100149.46
2018-10-16T17:10:28.850Z,100152.17
2018-10-16T17:12:57.004Z,100156.13
2018-10-16T17:15:24.865Z,100160.02
2018-10-16T17:17:53.037Z,100157.98
2018-10-16T17:20:20.825Z,100160.27
2018-10-16T17:22:48.669Z,100153.63
2018-10-16T17:25:16.534Z,100159.58
2018-10-16T17:27:44.805Z,100155.27
2018-10-16T17:30:14.640Z,100156.91
2018-10-16T17:32:42.970Z,100153.17
2018-10-16T17:35:11.349Z,100157.41
2018-10-16T17:37:39.838Z,100164.06
2018-10-16T17:40:10.224Z,100160.62
2018-10-16T17:42:38.012Z,100160.92
2018-10-16T17:45:07.895Z,100165.26
2018-10-16T17:47:35.957Z,100170.08
2018-10-16T17:50:04.816Z,100171.06
2018-10-16T17:52:32.713Z,100169.18
2018-10-16T17:55:00.719Z,100174.09
2018-10-16T17:57:28.972Z,100174.95
2018-10-16T17:59:56.743Z,100174.19
2018-10-16T18:02:24.481Z,100175.59
2018-10-16T18:04:52.258Z,100176.88
2018-10-16T18:07:23.587Z,100178.61
2018-10-16T18:09:51.504Z,100175.44
2018-10-16T18:12:19.356Z,100170.81
2018-10-16T18:14:47.245Z,100169.41
2018-10-16T18:17:14.995Z,100174.17
2018-10-16T18:19:42.764Z,100175.14
2018-10-16T18:22:10.830Z,100175.14
2018-10-16T18:24:38.912Z,100182.72
2018-10-16T18:27:06.763Z,100182.16
2018-10-16T18:29:34.483Z,100182.11
2018-10-16T18:32:02.240Z,100183.92
2018-10-16T18:34:30.379Z,100182.24
2018-10-16T18:36:58.287Z,100190.75
2018-10-16T18:39:26.199Z,100190.34
2018-10-16T18:41:53.993Z,100189.64
2018-10-16T18:44:21.704Z,100187.13
2018-10-16T18:46:49.782Z,100190.55
2018-10-16T18:49:17.540Z,100193.41
2018-10-16T18:51:45.491Z,100199.20
2018-10-16T18:54:13.283Z,100193.63
2018-10-16T18:56:41.429Z,100192.45
2018-10-16T18:59:09.297Z,100194.26
2018-10-16T19:01:37.333Z,100195.16
2018-10-16T19:04:05.965Z,100202.87
2018-10-16T19:06:33.947Z,100200.17
2018-10-16T19:09:02.067Z,100199.88
2018-10-16T19:11:30.155Z,100203.01
2018-10-16T19:13:58.197Z,100206.91
2018-10-16T19:16:26.348Z,100200.28
2018-10-16T19:18:54.332Z,100206.82
2018-10-16T19:21:22.509Z,100206.75
2018-10-16T19:23:50.657Z,100207.01
2018-10-16T19:26:18.618Z,100198.31
2018-10-16T19:28:46.707Z,100206.14
2018-10-16T19:31:14.806Z,100202.02
2018-10-16T19:33:43.107Z,100204.98
2018-10-16T19:36:11.646Z,100200.70
2018-10-16T19:38:39.734Z,100207.00
2018-10-16T19:41:07.706Z,100215.53
2018-10-16T19:43:35.799Z,100215.53
2018-10-16T19:46:03.773Z,100217.56
2018-10-16T19:48:32.101Z,100218.33
2018-10-16T19:51:00.135Z,100225.89
2018-10-16T19:53:28.075Z,100220.90
2018-10-16T19:55:56.233Z,100223.66
2018-10-16T19:58:23.904Z,100225.88
2018-10-16T20:00:55.252Z,100225.95
2018-10-16T20:03:23.142Z,100218.44
2018-10-16T20:05:50.933Z,100227.73
2018-10-16T20:08:18.866Z,100217.28
2018-10-16T20:10:46.874Z,100218.55
2018-10-16T20:13:15.968Z,100216.36
2018-10-16T20:15:44.139Z,100218.38
2018-10-16T20:18:12.006Z,100213.06
2018-10-16T20:20:39.928Z,100222.12
2018-10-16T20:23:07.792Z,100218.22
2018-10-16T20:25:35.687Z,100225.41
2018-10-16T20:28:04.365Z,100216.70
2018-10-16T20:30:32.225Z,100218.17
2018-10-16T20:33:00.074Z,100211.14
2018-10-16T20:35:27.891Z,100213.65
2018-10-16T20:37:55.724Z,100217.45
2018-10-16T20:40:23.452Z,100211.34
2018-10-16T20:42:51.356Z,100216.73
2018-10-16T20:45:19.133Z,100210.17
2018-10-16T20:47:46.777Z,100209.78
2018-10-16T20:50:14.518Z,100207.54
2018-10-16T20:52:42.211Z,100208.73
2018-10-16T20:55:09.976Z,100214.64
2018-10-16T20:57:38.049Z,100211.28
2018-10-16T21:00:06.678Z,100207.22
2018-10-16T21:02:34.284Z,100215.15
2018-10-16T21:05:02.055Z,100208.32
2018-10-16T21:07:29.775Z,100206.31
2018-10-16T21:09:57.365Z,100208.02
2018-10-16T21:12:25.046Z,100206.94
2018-10-16T21:14:52.738Z,100205.74
2018-10-16T21:17:20.454Z,100204.45
2018-10-16T21:19:48.245Z,100202.30
2018-10-16T21:22:15.902Z,100201.45
2018-10-16T21:24:43.526Z,100201.00
2018-10-16T21:27:11.969Z,100199.75
2018-10-16T21:29:39.645Z,100194.76
2018-10-16T21:32:08.114Z,100199.06
2018-10-16T21:34:35.816Z,100194.92
2018-10-16T21:37:03.671Z,100196.73
2018-10-16T21:39:31.334Z,100194.34
2018-10-16T21:41:58.990Z,100195.18
2018-10-16T21:44:26.650Z,100199.53
2018-10-16T21:46:54.327Z,100196.54
2018-10-16T21:49:22.654Z,100196.90
2018-10-16T21:51:50.658Z,100192.11
2018-10-16T21:54:18.369Z,100193.81
2018-10-16T21:56:46.291Z,100192.48
2018-10-16T21:59:14.058Z,100195.26
2018-10-16T22:01:47.452Z,100190.07
2018-10-16T22:04:15.186Z,100196.44
2018-10-16T22:06:42.911Z,100188.92
2018-10-16T22:09:12.334Z,100185.81
2018-10-16T22:11:40.038Z,100193.63
2018-10-16T22:14:08.438Z,100196.13
2018-10-16T22:16:36.166Z,100192.92
2018-10-16T22:19:04.343Z,100187.89
2018-10-16T22:21:32.016Z,100190.64
2018-10-16T22:23:59.870Z,100191.48
2018-10-16T22:26:27.562Z,100183.67
2018-10-16T22:28:55.245Z,100188.47
2018-10-16T22:31:23.052Z,100191.20
2018-10-16T22:33:50.730Z,100191.20
2018-10-16T22:36:18.370Z,100193.63
2018-10-16T22:38:46.035Z,100190.63
2018-10-16T22:41:13.742Z,100187.52
2018-10-16T22:43:41.405Z,100192.30
2018-10-16T22:46:09.133Z,100185.23
2018-10-16T22:48:36.705Z,100187.38
2018-10-16T22:51:04.461Z,100187.38
2018-10-16T22:53:32.121Z,100182.74
2018-10-16T22:55:59.805Z,100183.69
2018-10-16T22:58:27.475Z,100186.17
2018-10-16T23:00:55.234Z,100182.48
2018-10-16T23:03:22.845Z,100190.85
2018-10-16T23:05:50.513Z,100188.84
2018-10-16T23:08:18.185Z,100187.38
2018-10-16T23:10:45.825Z,100186.44
2018-10-16T23:13:13.475Z,100192.89
2018-10-16T23:15:41.133Z,100191.58
2018-10-16T23:18:08.771Z,100196.47
2018-10-16T23:20:36.490Z,100197.78
2018-10-16T23:23:04.942Z,100191.68
2018-10-16T23:25:32.650Z,100196.68
2018-10-16T23:28:00.478Z,100200.72
2018-10-16T23:30:28.144Z,100196.56
2018-10-16T23:32:55.840Z,100196.79
2018-10-16T23:35:23.532Z,100194.30
2018-10-16T23:37:51.230Z,100194.30
2018-10-16T23:40:19.004Z,100192.38
2018-10-16T23:42:46.722Z,100195.14
2018-10-16T23:45:14.446Z,100191.30
2018-10-16T23:47:42.163Z,100192.61
2018-10-16T23:50:09.917Z,100194.25
2018-10-16T23:52:37.590Z,100193.19
2018-10-16T23:55:07.936Z,100191.39
2018-10-16T23:57:35.616Z,100190.18
